sensor_id;sensor_type;location;lat;lon;timestamp;temperature;humidity
8313;DHT22;4194;43.408;24.626;2022-09-13T00:01:04;16.70;99.90
8313;DHT22;4194;43.408;24.626;2022-09-13T00:03:30;17.10;99.90
8313;DHT22;4194;43.408;24.626;2022-09-13T00:05:56;16.90;99.90
8313;DHT22;4194;43.408;24.626;2022-09-13T00:08:22;16.80;99.90
8313;DHT22;4194;43.408;24.626;2022-09-13T00:10:48;16.70;99.90
8313;DHT22;4194;43.408;24.626;2022-09-13T00:13:15;16.70;99.90
8313;DHT22;4194;43.408;24.626;2022-09-13T00:15:46;16.60;99.90
8313;DHT22;4194;43.408;24.626;2022-09-13T00:18:12;16.50;99.90
8313;DHT22;4194;43.408;24.626;2022-09-13T00:20:38;16.50;99.90
8313;DHT22;4194;43.408;24.626;2022-09-13T00:23:04;16.20;99.90
8313;DHT22;4194;43.408;24.626;2022-09-13T00:25:29;16.60;99.90
8313;DHT22;4194;43.408;24.626;2022-09-13T00:27:55;16.20;99.90
8313;DHT22;4194;43.408;24.626;2022-09-13T00:30:20;16.20;99.90
8313;DHT22;4194;43.408;24.626;2022-09-13T00:32:46;16.20;99.90
8313;DHT22;4194;43.408;24.626;2022-09-13T00:35:12;16.10;99.90
8313;DHT22;4194;43.408;24.626;2022-09-13T00:37:37;16.10;99.90
8313;DHT22;4194;43.408;24.626;2022-09-13T00:40:04;16.10;99.90
8313;DHT22;4194;43.408;24.626;2022-09-13T00:42:31;15.90;99.90
8313;DHT22;4194;43.408;24.626;2022-09-13T00:50:31;15.90;99.90
8313;DHT22;4194;43.408;24.626;2022-09-13T00:56:11;15.90;99.90
8313;DHT22;4194;43.408;24.626;2022-09-13T00:58:57;15.80;99.90
8313;DHT22;4194;43.408;24.626;2022-09-13T01:01:40;15.70;99.90
8313;DHT22;4194;43.408;24.626;2022-09-13T01:04:06;15.70;99.90
8313;DHT22;4194;43.408;24.626;2022-09-13T01:06:34;15.70;99.90
8313;DHT22;4194;43.408;24.626;2022-09-13T01:09:02;15.70;99.90
8313;DHT22;4194;43.408;24.626;2022-09-13T01:11:56;15.70;99.90
8313;DHT22;4194;43.408;24.626;2022-09-13T01:14:30;15.60;99.90
8313;DHT22;4194;43.408;24.626;2022-09-13T01:19:22;15.60;99.90
8313;DHT22;4194;43.408;24.626;2022-09-13T01:25:05;15.70;99.90
8313;DHT22;4194;43.408;24.626;2022-09-13T01:30:22;15.50;99.90
8313;DHT22;4194;43.408;24.626;2022-09-13T01:47:26;15.30;99.90
8313;DHT22;4194;43.408;24.626;2022-09-13T01:50:31;15.10;99.90
8313;DHT22;4194;43.408;24.626;2022-09-13T01:53:03;15.20;99.90
8313;DHT22;4194;43.408;24.626;2022-09-13T01:55:50;15.30;99.90
8313;DHT22;4194;43.408;24.626;2022-09-13T02:03:58;15.10;99.90
8313;DHT22;4194;43.408;24.626;2022-09-13T02:06:50;15.20;99.90
8313;DHT22;4194;43.408;24.626;2022-09-13T02:09:20;15.20;99.90
8313;DHT22;4194;43.408;24.626;2022-09-13T02:11:53;15.20;99.90
8313;DHT22;4194;43.408;24.626;2022-09-13T02:14:34;15.10;99.90
8313;DHT22;4194;43.408;24.626;2022-09-13T02:17:14;15.10;99.90
8313;DHT22;4194;43.408;24.626;2022-09-13T02:19:58;14.60;99.90
8313;DHT22;4194;43.408;24.626;2022-09-13T02:22:30;15.00;99.90
8313;DHT22;4194;43.408;24.626;2022-09-13T02:25:05;14.90;99.90
8313;DHT22;4194;43.408;24.626;2022-09-13T02:27:33;14.90;99.90
8313;DHT22;4194;43.408;24.626;2022-09-13T02:30:04;14.80;99.90
8313;DHT22;4194;43.408;24.626;2022-09-13T02:32:37;14.70;99.90
8313;DHT22;4194;43.408;24.626;2022-09-13T02:37:39;14.40;99.90
8313;DHT22;4194;43.408;24.626;2022-09-13T02:40:14;14.60;99.90
8313;DHT22;4194;43.408;24.626;2022-09-13T02:43:07;14.60;99.90
8313;DHT22;4194;43.408;24.626;2022-09-13T02:45:51;14.60;99.90
8313;DHT22;4194;43.408;24.626;2022-09-13T02:48:30;14.40;99.90
8313;DHT22;4194;43.408;24.626;2022-09-13T02:57:05;14.60;99.90
8313;DHT22;4194;43.408;24.626;2022-09-13T02:59:33;14.50;99.90
8313;DHT22;4194;43.408;24.626;2022-09-13T03:02:06;14.40;99.90
8313;DHT22;4194;43.408;24.626;2022-09-13T03:04:33;14.40;99.90
8313;DHT22;4194;43.408;24.626;2022-09-13T03:06:59;14.40;99.90
8313;DHT22;4194;43.408;24.626;2022-09-13T03:09:25;14.40;99.90
8313;DHT22;4194;43.408;24.626;2022-09-13T03:17:40;14.40;99.90
8313;DHT22;4194;43.408;24.626;2022-09-13T03:26:22;14.30;99.90
8313;DHT22;4194;43.408;24.626;2022-09-13T03:29:04;14.90;99.90
8313;DHT22;4194;43.408;24.626;2022-09-13T03:32:14;13.30;99.90
8313;DHT22;4194;43.408;24.626;2022-09-13T03:37:57;14.30;99.90
8313;DHT22;4194;43.408;24.626;2022-09-13T03:43:05;14.20;99.90
8313;DHT22;4194;43.408;24.626;2022-09-13T03:45:36;14.70;99.90
8313;DHT22;4194;43.408;24.626;2022-09-13T03:48:05;14.10;99.90
8313;DHT22;4194;43.408;24.626;2022-09-13T03:50:32;14.20;99.90
8313;DHT22;4194;43.408;24.626;2022-09-13T03:53:08;14.50;99.90
8313;DHT22;4194;43.408;24.626;2022-09-13T03:55:38;13.90;99.90
8313;DHT22;4194;43.408;24.626;2022-09-13T03:58:05;14.20;99.90
8313;DHT22;4194;43.408;24.626;2022-09-13T04:00:31;13.80;99.90
8313;DHT22;4194;43.408;24.626;2022-09-13T04:02:56;13.30;99.90
8313;DHT22;4194;43.408;24.626;2022-09-13T04:05:22;14.10;99.90
8313;DHT22;4194;43.408;24.626;2022-09-13T04:07:48;14.90;99.90
8313;DHT22;4194;43.408;24.626;2022-09-13T04:10:13;14.00;99.90
8313;DHT22;4194;43.408;24.626;2022-09-13T04:12:39;13.80;99.90
8313;DHT22;4194;43.408;24.626;2022-09-13T04:15:06;14.00;99.90
8313;DHT22;4194;43.408;24.626;2022-09-13T04:17:32;13.60;99.90
8313;DHT22;4194;43.408;24.626;2022-09-13T04:19:57;14.10;99.90
8313;DHT22;4194;43.408;24.626;2022-09-13T04:22:23;14.10;99.90
8313;DHT22;4194;43.408;24.626;2022-09-13T04:24:49;14.90;99.90
8313;DHT22;4194;43.408;24.626;2022-09-13T04:27:17;14.00;99.90
8313;DHT22;4194;43.408;24.626;2022-09-13T04:29:43;14.10;99.90
8313;DHT22;4194;43.408;24.626;2022-09-13T04:32:08;13.90;99.90
8313;DHT22;4194;43.408;24.626;2022-09-13T04:34:35;14.70;99.90
8313;DHT22;4194;43.408;24.626;2022-09-13T04:37:01;14.20;99.90
8313;DHT22;4194;43.408;24.626;2022-09-13T04:39:27;14.10;99.90
8313;DHT22;4194;43.408;24.626;2022-09-13T04:41:53;14.10;99.90
8313;DHT22;4194;43.408;24.626;2022-09-13T04:44:19;14.20;99.90
8313;DHT22;4194;43.408;24.626;2022-09-13T04:46:47;14.20;99.90
8313;DHT22;4194;43.408;24.626;2022-09-13T04:49:14;14.20;99.90
8313;DHT22;4194;43.408;24.626;2022-09-13T04:51:40;14.30;99.90
8313;DHT22;4194;43.408;24.626;2022-09-13T04:54:07;15.00;99.90
8313;DHT22;4194;43.408;24.626;2022-09-13T04:56:35;14.30;99.90
8313;DHT22;4194;43.408;24.626;2022-09-13T04:59:00;14.30;99.90
8313;DHT22;4194;43.408;24.626;2022-09-13T05:01:26;14.60;99.90
8313;DHT22;4194;43.408;24.626;2022-09-13T05:03:52;14.70;99.90
8313;DHT22;4194;43.408;24.626;2022-09-13T05:06:19;14.70;99.90
8313;DHT22;4194;43.408;24.626;2022-09-13T05:08:53;14.90;99.90
8313;DHT22;4194;43.408;24.626;2022-09-13T05:11:24;15.30;99.90
8313;DHT22;4194;43.408;24.626;2022-09-13T05:13:51;15.20;99.90
8313;DHT22;4194;43.408;24.626;2022-09-13T05:16:19;15.20;99.90
8313;DHT22;4194;43.408;24.626;2022-09-13T05:18:44;15.30;99.90
8313;DHT22;4194;43.408;24.626;2022-09-13T05:21:10;16.10;99.90
8313;DHT22;4194;43.408;24.626;2022-09-13T05:23:36;15.60;99.90
8313;DHT22;4194;43.408;24.626;2022-09-13T05:26:04;15.60;99.90
8313;DHT22;4194;43.408;24.626;2022-09-13T05:28:33;16.10;99.90
8313;DHT22;4194;43.408;24.626;2022-09-13T05:31:07;15.80;99.90
8313;DHT22;4194;43.408;24.626;2022-09-13T05:33:35;16.20;99.90
8313;DHT22;4194;43.408;24.626;2022-09-13T05:36:02;16.10;99.90
8313;DHT22;4194;43.408;24.626;2022-09-13T05:38:28;16.30;99.90
8313;DHT22;4194;43.408;24.626;2022-09-13T05:40:55;16.20;99.90
8313;DHT22;4194;43.408;24.626;2022-09-13T05:43:22;16.20;99.90
8313;DHT22;4194;43.408;24.626;2022-09-13T05:45:48;16.10;99.90
8313;DHT22;4194;43.408;24.626;2022-09-13T05:48:14;16.30;99.90
8313;DHT22;4194;43.408;24.626;2022-09-13T05:50:40;16.40;99.90
8313;DHT22;4194;43.408;24.626;2022-09-13T05:53:05;16.40;99.90
8313;DHT22;4194;43.408;24.626;2022-09-13T05:55:31;16.60;99.90
8313;DHT22;4194;43.408;24.626;2022-09-13T05:58:00;16.60;99.90
8313;DHT22;4194;43.408;24.626;2022-09-13T06:00:25;16.70;99.90
8313;DHT22;4194;43.408;24.626;2022-09-13T06:02:51;16.90;99.90
8313;DHT22;4194;43.408;24.626;2022-09-13T06:05:18;16.80;99.90
8313;DHT22;4194;43.408;24.626;2022-09-13T06:07:43;17.00;99.90
8313;DHT22;4194;43.408;24.626;2022-09-13T06:10:10;17.10;99.90
8313;DHT22;4194;43.408;24.626;2022-09-13T06:12:36;17.20;99.90
8313;DHT22;4194;43.408;24.626;2022-09-13T06:15:02;17.30;99.90
8313;DHT22;4194;43.408;24.626;2022-09-13T06:17:27;17.30;99.90
8313;DHT22;4194;43.408;24.626;2022-09-13T06:19:53;17.20;99.90
8313;DHT22;4194;43.408;24.626;2022-09-13T06:22:19;17.20;99.90
8313;DHT22;4194;43.408;24.626;2022-09-13T06:24:44;17.40;99.90
8313;DHT22;4194;43.408;24.626;2022-09-13T06:27:10;17.50;99.90
8313;DHT22;4194;43.408;24.626;2022-09-13T06:29:36;17.60;99.90
8313;DHT22;4194;43.408;24.626;2022-09-13T06:32:03;17.70;99.90
8313;DHT22;4194;43.408;24.626;2022-09-13T06:34:28;17.70;99.90
8313;DHT22;4194;43.408;24.626;2022-09-13T06:36:54;18.00;99.90
8313;DHT22;4194;43.408;24.626;2022-09-13T06:39:20;17.90;99.90
8313;DHT22;4194;43.408;24.626;2022-09-13T06:41:45;18.10;99.90
8313;DHT22;4194;43.408;24.626;2022-09-13T06:44:11;18.20;99.90
8313;DHT22;4194;43.408;24.626;2022-09-13T06:46:37;17.70;99.90
8313;DHT22;4194;43.408;24.626;2022-09-13T06:49:06;18.20;99.90
8313;DHT22;4194;43.408;24.626;2022-09-13T06:51:35;19.10;99.90
8313;DHT22;4194;43.408;24.626;2022-09-13T06:54:01;18.30;99.90
8313;DHT22;4194;43.408;24.626;2022-09-13T06:56:33;18.50;99.90
8313;DHT22;4194;43.408;24.626;2022-09-13T06:59:02;19.30;99.60
8313;DHT22;4194;43.408;24.626;2022-09-13T07:01:40;18.70;99.60
8313;DHT22;4194;43.408;24.626;2022-09-13T07:04:15;18.50;98.40
8313;DHT22;4194;43.408;24.626;2022-09-13T07:06:43;19.80;98.10
8313;DHT22;4194;43.408;24.626;2022-09-13T07:09:20;19.60;97.90
8313;DHT22;4194;43.408;24.626;2022-09-13T07:11:47;18.60;97.30
8313;DHT22;4194;43.408;24.626;2022-09-13T07:14:15;18.90;97.80
8313;DHT22;4194;43.408;24.626;2022-09-13T07:16:42;19.10;97.10
8313;DHT22;4194;43.408;24.626;2022-09-13T07:19:16;18.90;96.90
8313;DHT22;4194;43.408;24.626;2022-09-13T07:21:42;19.20;97.00
8313;DHT22;4194;43.408;24.626;2022-09-13T07:24:08;19.20;96.60
8313;DHT22;4194;43.408;24.626;2022-09-13T07:26:35;19.40;96.40
8313;DHT22;4194;43.408;24.626;2022-09-13T07:29:05;19.50;95.40
8313;DHT22;4194;43.408;24.626;2022-09-13T07:31:35;20.60;94.70
8313;DHT22;4194;43.408;24.626;2022-09-13T07:34:06;19.60;94.60
8313;DHT22;4194;43.408;24.626;2022-09-13T07:36:35;19.60;94.90
8313;DHT22;4194;43.408;24.626;2022-09-13T07:39:01;19.70;94.50
8313;DHT22;4194;43.408;24.626;2022-09-13T07:41:28;19.80;93.90
8313;DHT22;4194;43.408;24.626;2022-09-13T07:43:55;20.00;93.70
8313;DHT22;4194;43.408;24.626;2022-09-13T07:46:26;19.90;93.00
8313;DHT22;4194;43.408;24.626;2022-09-13T07:48:54;19.90;92.90
8313;DHT22;4194;43.408;24.626;2022-09-13T07:51:24;20.00;92.80
8313;DHT22;4194;43.408;24.626;2022-09-13T07:53:53;20.10;92.60
8313;DHT22;4194;43.408;24.626;2022-09-13T07:56:23;20.20;92.30
8313;DHT22;4194;43.408;24.626;2022-09-13T07:58:50;21.40;91.90
8313;DHT22;4194;43.408;24.626;2022-09-13T08:01:19;20.10;91.60
8313;DHT22;4194;43.408;24.626;2022-09-13T08:03:57;20.30;91.80
8313;DHT22;4194;43.408;24.626;2022-09-13T08:06:24;20.40;90.80
8313;DHT22;4194;43.408;24.626;2022-09-13T08:08:51;20.40;90.70
8313;DHT22;4194;43.408;24.626;2022-09-13T08:11:22;20.50;90.60
8313;DHT22;4194;43.408;24.626;2022-09-13T08:13:50;20.50;90.20
8313;DHT22;4194;43.408;24.626;2022-09-13T08:16:18;20.50;90.50
8313;DHT22;4194;43.408;24.626;2022-09-13T08:18:45;20.60;89.10
8313;DHT22;4194;43.408;24.626;2022-09-13T08:21:11;20.70;89.30
8313;DHT22;4194;43.408;24.626;2022-09-13T08:23:37;20.70;90.30
8313;DHT22;4194;43.408;24.626;2022-09-13T08:26:03;21.00;89.90
8313;DHT22;4194;43.408;24.626;2022-09-13T08:28:30;21.00;88.20
8313;DHT22;4194;43.408;24.626;2022-09-13T08:31:23;21.10;88.50
8313;DHT22;4194;43.408;24.626;2022-09-13T08:33:48;21.40;83.80
8313;DHT22;4194;43.408;24.626;2022-09-13T08:36:15;21.50;83.70
8313;DHT22;4194;43.408;24.626;2022-09-13T08:38:49;21.70;80.60
8313;DHT22;4194;43.408;24.626;2022-09-13T08:44:27;21.80;79.50
8313;DHT22;4194;43.408;24.626;2022-09-13T08:49:45;21.70;78.90
8313;DHT22;4194;43.408;24.626;2022-09-13T08:52:29;21.70;78.60
8313;DHT22;4194;43.408;24.626;2022-09-13T08:55:03;21.80;77.20
8313;DHT22;4194;43.408;24.626;2022-09-13T08:57:44;20.90;75.90
8313;DHT22;4194;43.408;24.626;2022-09-13T09:00:20;21.70;77.50
8313;DHT22;4194;43.408;24.626;2022-09-13T09:02:50;22.00;76.60
8313;DHT22;4194;43.408;24.626;2022-09-13T09:05:30;22.30;74.40
8313;DHT22;4194;43.408;24.626;2022-09-13T09:08:24;22.30;74.80
8313;DHT22;4194;43.408;24.626;2022-09-13T09:10:55;22.30;74.00
8313;DHT22;4194;43.408;24.626;2022-09-13T09:13:29;22.30;73.50
8313;DHT22;4194;43.408;24.626;2022-09-13T09:19:37;22.50;73.30
8313;DHT22;4194;43.408;24.626;2022-09-13T09:22:01;22.60;72.10
8313;DHT22;4194;43.408;24.626;2022-09-13T09:24:31;22.70;70.50
8313;DHT22;4194;43.408;24.626;2022-09-13T09:26:58;22.80;69.90
8313;DHT22;4194;43.408;24.626;2022-09-13T09:29:31;24.10;69.10
8313;DHT22;4194;43.408;24.626;2022-09-13T09:40:34;24.70;66.10
8313;DHT22;4194;43.408;24.626;2022-09-13T09:43:16;23.50;65.70
8313;DHT22;4194;43.408;24.626;2022-09-13T09:45:45;23.50;65.00
8313;DHT22;4194;43.408;24.626;2022-09-13T09:48:17;23.50;65.70
8313;DHT22;4194;43.408;24.626;2022-09-13T09:50:52;23.30;65.20
8313;DHT22;4194;43.408;24.626;2022-09-13T09:53:26;23.80;64.90
8313;DHT22;4194;43.408;24.626;2022-09-13T09:56:05;23.70;61.70
8313;DHT22;4194;43.408;24.626;2022-09-13T09:58:38;24.30;62.70
8313;DHT22;4194;43.408;24.626;2022-09-13T10:01:04;24.40;61.40
8313;DHT22;4194;43.408;24.626;2022-09-13T10:03:32;24.60;60.70
8313;DHT22;4194;43.408;24.626;2022-09-13T10:08:35;24.60;59.60
8313;DHT22;4194;43.408;24.626;2022-09-13T10:11:02;24.60;59.80
8313;DHT22;4194;43.408;24.626;2022-09-13T10:13:29;23.90;59.30
8313;DHT22;4194;43.408;24.626;2022-09-13T10:15:56;24.60;60.80
8313;DHT22;4194;43.408;24.626;2022-09-13T10:18:26;24.90;62.80
8313;DHT22;4194;43.408;24.626;2022-09-13T10:21:21;25.50;60.50
8313;DHT22;4194;43.408;24.626;2022-09-13T10:23:48;26.50;58.80
8313;DHT22;4194;43.408;24.626;2022-09-13T10:26:24;26.00;59.00
8313;DHT22;4194;43.408;24.626;2022-09-13T10:29:07;26.40;54.00
8313;DHT22;4194;43.408;24.626;2022-09-13T10:31:36;26.90;54.00
8313;DHT22;4194;43.408;24.626;2022-09-13T10:34:10;27.90;54.80
8313;DHT22;4194;43.408;24.626;2022-09-13T10:37:04;26.90;54.80
8313;DHT22;4194;43.408;24.626;2022-09-13T10:39:30;26.70;54.40
8313;DHT22;4194;43.408;24.626;2022-09-13T10:42:03;26.30;55.30
8313;DHT22;4194;43.408;24.626;2022-09-13T10:47:09;25.10;56.30
8313;DHT22;4194;43.408;24.626;2022-09-13T10:49:45;24.80;56.80
8313;DHT22;4194;43.408;24.626;2022-09-13T10:52:32;24.80;57.50
8313;DHT22;4194;43.408;24.626;2022-09-13T10:57:47;25.00;58.00
8313;DHT22;4194;43.408;24.626;2022-09-13T11:00:16;24.70;57.20
8313;DHT22;4194;43.408;24.626;2022-09-13T11:11:35;28.20;50.60
8313;DHT22;4194;43.408;24.626;2022-09-13T11:14:38;29.30;48.40
8313;DHT22;4194;43.408;24.626;2022-09-13T11:34:03;29.60;47.20
8313;DHT22;4194;43.408;24.626;2022-09-13T11:36:47;29.80;46.00
8313;DHT22;4194;43.408;24.626;2022-09-13T11:42:04;30.10;46.30
8313;DHT22;4194;43.408;24.626;2022-09-13T11:47:30;31.20;44.30
8313;DHT22;4194;43.408;24.626;2022-09-13T11:51:03;31.60;42.30
8313;DHT22;4194;43.408;24.626;2022-09-13T11:53:32;32.40;43.70
8313;DHT22;4194;43.408;24.626;2022-09-13T11:56:18;31.50;41.90
8313;DHT22;4194;43.408;24.626;2022-09-13T12:01:42;32.10;42.70
8313;DHT22;4194;43.408;24.626;2022-09-13T12:04:32;31.60;41.80
8313;DHT22;4194;43.408;24.626;2022-09-13T12:07:02;32.00;41.40
8313;DHT22;4194;43.408;24.626;2022-09-13T12:09:34;33.90;40.90
8313;DHT22;4194;43.408;24.626;2022-09-13T12:12:06;34.00;39.90
8313;DHT22;4194;43.408;24.626;2022-09-13T12:14:56;34.00;39.10
8313;DHT22;4194;43.408;24.626;2022-09-13T12:17:34;34.00;37.60
8313;DHT22;4194;43.408;24.626;2022-09-13T12:20:04;34.70;38.50
8313;DHT22;4194;43.408;24.626;2022-09-13T12:22:33;35.80;35.60
8313;DHT22;4194;43.408;24.626;2022-09-13T12:25:10;35.60;36.10
8313;DHT22;4194;43.408;24.626;2022-09-13T12:28:12;35.60;35.30
8313;DHT22;4194;43.408;24.626;2022-09-13T12:30:52;33.70;36.80
8313;DHT22;4194;43.408;24.626;2022-09-13T12:33:20;32.40;39.70
8313;DHT22;4194;43.408;24.626;2022-09-13T12:41:40;32.90;39.20
8313;DHT22;4194;43.408;24.626;2022-09-13T12:44:29;33.00;37.80
8313;DHT22;4194;43.408;24.626;2022-09-13T12:52:32;30.10;40.30
8313;DHT22;4194;43.408;24.626;2022-09-13T13:00:35;38.60;33.00
8313;DHT22;4194;43.408;24.626;2022-09-13T13:03:11;38.30;32.30
8313;DHT22;4194;43.408;24.626;2022-09-13T13:05:48;39.40;31.50
8313;DHT22;4194;43.408;24.626;2022-09-13T13:08:25;39.40;30.70
8313;DHT22;4194;43.408;24.626;2022-09-13T13:11:08;39.30;31.10
8313;DHT22;4194;43.408;24.626;2022-09-13T13:13:42;39.50;31.70
8313;DHT22;4194;43.408;24.626;2022-09-13T13:18:51;40.50;30.20
8313;DHT22;4194;43.408;24.626;2022-09-13T13:21:33;35.20;33.20
8313;DHT22;4194;43.408;24.626;2022-09-13T13:26:59;33.60;36.80
8313;DHT22;4194;43.408;24.626;2022-09-13T13:29:29;33.60;36.60
8313;DHT22;4194;43.408;24.626;2022-09-13T13:39:42;40.50;29.70
8313;DHT22;4194;43.408;24.626;2022-09-13T13:42:27;41.50;29.00
8313;DHT22;4194;43.408;24.626;2022-09-13T14:00:25;41.70;28.50
8313;DHT22;4194;43.408;24.626;2022-09-13T14:08:58;39.10;30.60
8313;DHT22;4194;43.408;24.626;2022-09-13T14:11:44;41.50;29.30
8313;DHT22;4194;43.408;24.626;2022-09-13T14:19:51;45.20;27.00
8313;DHT22;4194;43.408;24.626;2022-09-13T14:22:24;44.80;25.40
8313;DHT22;4194;43.408;24.626;2022-09-13T14:24:57;44.40;25.80
8313;DHT22;4194;43.408;24.626;2022-09-13T14:27:29;40.40;27.90
8313;DHT22;4194;43.408;24.626;2022-09-13T14:30:04;34.40;31.10
8313;DHT22;4194;43.408;24.626;2022-09-13T14:32:43;34.50;32.20
8313;DHT22;4194;43.408;24.626;2022-09-13T14:38:18;29.30;38.20
8313;DHT22;4194;43.408;24.626;2022-09-13T14:40:52;29.00;39.10
8313;DHT22;4194;43.408;24.626;2022-09-13T14:43:24;32.70;35.80
8313;DHT22;4194;43.408;24.626;2022-09-13T14:49:00;35.70;33.90
8313;DHT22;4194;43.408;24.626;2022-09-13T14:51:47;33.60;34.00
8313;DHT22;4194;43.408;24.626;2022-09-13T14:54:19;33.50;34.20
8313;DHT22;4194;43.408;24.626;2022-09-13T14:56:52;32.70;36.10
8313;DHT22;4194;43.408;24.626;2022-09-13T15:02:25;31.40;36.30
8313;DHT22;4194;43.408;24.626;2022-09-13T15:04:54;31.70;37.10
8313;DHT22;4194;43.408;24.626;2022-09-13T15:07:33;33.40;35.90
8313;DHT22;4194;43.408;24.626;2022-09-13T15:12:48;37.40;31.50
8313;DHT22;4194;43.408;24.626;2022-09-13T15:15:29;38.10;30.50
8313;DHT22;4194;43.408;24.626;2022-09-13T15:18:20;38.80;29.40
8313;DHT22;4194;43.408;24.626;2022-09-13T15:20:48;35.90;30.90
8313;DHT22;4194;43.408;24.626;2022-09-13T15:23:30;32.50;34.10
8313;DHT22;4194;43.408;24.626;2022-09-13T15:26:05;30.10;37.20
8313;DHT22;4194;43.408;24.626;2022-09-13T15:31:08;27.70;41.10
8313;DHT22;4194;43.408;24.626;2022-09-13T15:33:34;28.10;42.70
8313;DHT22;4194;43.408;24.626;2022-09-13T15:41:22;26.20;44.90
8313;DHT22;4194;43.408;24.626;2022-09-13T15:43:52;25.60;44.30
8313;DHT22;4194;43.408;24.626;2022-09-13T15:46:18;25.10;44.80
8313;DHT22;4194;43.408;24.626;2022-09-13T15:48:50;24.90;45.70
8313;DHT22;4194;43.408;24.626;2022-09-13T15:51:17;24.20;45.60
8313;DHT22;4194;43.408;24.626;2022-09-13T15:53:44;25.10;47.60
8313;DHT22;4194;43.408;24.626;2022-09-13T15:56:14;24.80;46.70
8313;DHT22;4194;43.408;24.626;2022-09-13T15:58:40;24.20;47.00
8313;DHT22;4194;43.408;24.626;2022-09-13T16:01:05;25.30;50.60
8313;DHT22;4194;43.408;24.626;2022-09-13T16:03:31;25.20;50.70
8313;DHT22;4194;43.408;24.626;2022-09-13T16:05:57;24.00;48.80
8313;DHT22;4194;43.408;24.626;2022-09-13T16:08:23;24.20;49.70
8313;DHT22;4194;43.408;24.626;2022-09-13T16:10:49;23.70;49.30
8313;DHT22;4194;43.408;24.626;2022-09-13T16:13:15;23.30;49.40
8313;DHT22;4194;43.408;24.626;2022-09-13T16:15:41;23.30;49.50
8313;DHT22;4194;43.408;24.626;2022-09-13T16:18:07;23.60;52.30
8313;DHT22;4194;43.408;24.626;2022-09-13T16:20:33;23.30;53.10
8313;DHT22;4194;43.408;24.626;2022-09-13T16:22:59;23.10;50.70
8313;DHT22;4194;43.408;24.626;2022-09-13T16:25:24;22.10;51.80
8313;DHT22;4194;43.408;24.626;2022-09-13T16:27:50;22.90;52.80
8313;DHT22;4194;43.408;24.626;2022-09-13T16:30:19;21.90;50.60
8313;DHT22;4194;43.408;24.626;2022-09-13T16:35:11;22.50;54.00
8313;DHT22;4194;43.408;24.626;2022-09-13T16:37:38;22.40;55.00
8313;DHT22;4194;43.408;24.626;2022-09-13T16:40:05;22.30;52.80
8313;DHT22;4194;43.408;24.626;2022-09-13T16:42:31;22.10;53.00
8313;DHT22;4194;43.408;24.626;2022-09-13T16:44:57;22.00;54.70
8313;DHT22;4194;43.408;24.626;2022-09-13T16:47:23;21.90;54.30
8313;DHT22;4194;43.408;24.626;2022-09-13T16:49:49;21.90;54.90
8313;DHT22;4194;43.408;24.626;2022-09-13T16:52:14;21.50;54.10
8313;DHT22;4194;43.408;24.626;2022-09-13T16:54:40;21.90;55.10
8313;DHT22;4194;43.408;24.626;2022-09-13T16:57:06;21.60;57.10
8313;DHT22;4194;43.408;24.626;2022-09-13T16:59:34;21.70;56.40
8313;DHT22;4194;43.408;24.626;2022-09-13T17:02:00;21.40;57.90
8313;DHT22;4194;43.408;24.626;2022-09-13T17:04:26;21.10;56.00
8313;DHT22;4194;43.408;24.626;2022-09-13T17:09:18;21.10;56.40
8313;DHT22;4194;43.408;24.626;2022-09-13T17:11:45;21.10;57.00
8313;DHT22;4194;43.408;24.626;2022-09-13T17:14:12;21.10;57.10
8313;DHT22;4194;43.408;24.626;2022-09-13T17:16:51;20.90;57.80
8313;DHT22;4194;43.408;24.626;2022-09-13T17:19:19;20.80;57.60
8313;DHT22;4194;43.408;24.626;2022-09-13T17:21:45;20.80;57.60
8313;DHT22;4194;43.408;24.626;2022-09-13T17:24:11;20.80;58.00
8313;DHT22;4194;43.408;24.626;2022-09-13T17:26:37;20.50;58.30
8313;DHT22;4194;43.408;24.626;2022-09-13T17:29:03;20.60;58.90
8313;DHT22;4194;43.408;24.626;2022-09-13T17:31:29;20.60;60.40
8313;DHT22;4194;43.408;24.626;2022-09-13T17:33:56;20.60;59.60
8313;DHT22;4194;43.408;24.626;2022-09-13T17:36:21;20.50;58.60
8313;DHT22;4194;43.408;24.626;2022-09-13T17:38:48;20.50;61.70
8313;DHT22;4194;43.408;24.626;2022-09-13T17:41:17;20.60;61.20
8313;DHT22;4194;43.408;24.626;2022-09-13T17:43:44;20.30;61.20
8313;DHT22;4194;43.408;24.626;2022-09-13T17:46:16;20.30;59.90
8313;DHT22;4194;43.408;24.626;2022-09-13T17:48:42;19.80;60.00
8313;DHT22;4194;43.408;24.626;2022-09-13T17:51:13;20.00;59.50
8313;DHT22;4194;43.408;24.626;2022-09-13T17:53:45;20.00;59.50
8313;DHT22;4194;43.408;24.626;2022-09-13T17:56:15;19.90;61.00
8313;DHT22;4194;43.408;24.626;2022-09-13T17:58:41;20.00;61.60
8313;DHT22;4194;43.408;24.626;2022-09-13T18:01:08;20.00;61.00
8313;DHT22;4194;43.408;24.626;2022-09-13T18:03:35;20.10;61.00
8313;DHT22;4194;43.408;24.626;2022-09-13T18:06:02;19.90;63.00
8313;DHT22;4194;43.408;24.626;2022-09-13T18:08:29;19.80;61.10
8313;DHT22;4194;43.408;24.626;2022-09-13T18:11:01;19.80;61.10
8313;DHT22;4194;43.408;24.626;2022-09-13T18:13:28;19.80;61.00
8313;DHT22;4194;43.408;24.626;2022-09-13T18:18:24;19.80;62.10
8313;DHT22;4194;43.408;24.626;2022-09-13T18:20:49;19.80;60.90
8313;DHT22;4194;43.408;24.626;2022-09-13T18:23:15;18.40;61.20
8313;DHT22;4194;43.408;24.626;2022-09-13T18:25:41;19.70;62.60
8313;DHT22;4194;43.408;24.626;2022-09-13T18:28:07;19.70;63.70
8313;DHT22;4194;43.408;24.626;2022-09-13T18:30:33;19.60;62.00
8313;DHT22;4194;43.408;24.626;2022-09-13T18:32:58;19.70;62.20
8313;DHT22;4194;43.408;24.626;2022-09-13T18:35:24;19.60;61.50
8313;DHT22;4194;43.408;24.626;2022-09-13T18:37:50;19.90;61.70
8313;DHT22;4194;43.408;24.626;2022-09-13T18:40:16;20.30;61.90
8313;DHT22;4194;43.408;24.626;2022-09-13T18:42:42;19.60;61.80
8313;DHT22;4194;43.408;24.626;2022-09-13T18:45:08;19.60;60.90
8313;DHT22;4194;43.408;24.626;2022-09-13T18:47:34;19.80;60.30
8313;DHT22;4194;43.408;24.626;2022-09-13T18:50:00;19.70;60.90
8313;DHT22;4194;43.408;24.626;2022-09-13T18:52:26;19.60;62.80
8313;DHT22;4194;43.408;24.626;2022-09-13T18:54:52;19.80;62.70
8313;DHT22;4194;43.408;24.626;2022-09-13T18:57:18;19.40;62.90
8313;DHT22;4194;43.408;24.626;2022-09-13T18:59:43;19.40;64.70
8313;DHT22;4194;43.408;24.626;2022-09-13T19:02:10;19.70;64.90
8313;DHT22;4194;43.408;24.626;2022-09-13T19:04:36;18.70;64.70
8313;DHT22;4194;43.408;24.626;2022-09-13T19:07:02;18.90;65.40
8313;DHT22;4194;43.408;24.626;2022-09-13T19:09:31;19.10;65.50
8313;DHT22;4194;43.408;24.626;2022-09-13T19:11:58;19.00;66.40
8313;DHT22;4194;43.408;24.626;2022-09-13T19:14:26;18.70;67.20
8313;DHT22;4194;43.408;24.626;2022-09-13T19:16:53;18.70;67.90
8313;DHT22;4194;43.408;24.626;2022-09-13T19:19:21;18.60;68.50
8313;DHT22;4194;43.408;24.626;2022-09-13T19:21:47;18.50;68.70
8313;DHT22;4194;43.408;24.626;2022-09-13T19:24:13;18.40;68.80
8313;DHT22;4194;43.408;24.626;2022-09-13T19:26:43;18.30;69.50
8313;DHT22;4194;43.408;24.626;2022-09-13T19:29:15;18.20;70.20
8313;DHT22;4194;43.408;24.626;2022-09-13T19:31:43;18.00;70.80
8313;DHT22;4194;43.408;24.626;2022-09-13T19:34:11;16.60;70.20